createdAt,value
2022-11-06T00:09:58.683Z,100190.17
2022-11-06T00:20:02.061Z,100192.52
2022-11-06T00:30:07.204Z,100199.93
2022-11-06T00:40:12.394Z,100206.84
2022-11-06T00:50:15.831Z,100214.40
2022-11-06T01:00:20.751Z,100212.70
2022-11-06T01:10:24.059Z,100215.88
2022-11-06T01:20:27.279Z,100209.40
2022-11-06T01:30:30.919Z,100219.58
2022-11-06T01:40:44.048Z,100221.15
2022-11-06T01:50:51.694Z,100225.13
2022-11-06T02:00:55.021Z,100234.48
2022-11-06T02:10:58.730Z,100237.51
2022-11-06T02:21:14.178Z,100226.91
2022-11-06T02:31:23.525Z,100227.58
2022-11-06T02:41:33.841Z,100229.09
2022-11-06T02:51:44.011Z,100242.34
2022-11-06T03:01:52.423Z,100250.11
2022-11-06T03:12:20.753Z,100252.83
2022-11-06T03:22:47.932Z,100247.50
2022-11-06T03:33:02.715Z,100252.03
2022-11-06T03:43:11.136Z,100263.20
2022-11-06T03:53:22.560Z,100266.80
2022-11-06T04:03:31.652Z,100265.56
2022-11-06T04:13:56.957Z,100264.52
2022-11-06T04:24:28.319Z,100270.07
2022-11-06T04:34:40.580Z,100276.81
2022-11-06T04:44:51.491Z,100273.77
2022-11-06T04:54:57.772Z,100267.81
2022-11-06T05:05:01.065Z,100265.11
2022-11-06T05:15:05.261Z,100264.38
2022-11-06T05:25:08.891Z,100267.84
2022-11-06T05:35:12.415Z,100269.80
2022-11-06T05:45:16.060Z,100270.57
2022-11-06T05:55:19.716Z,100271.88
2022-11-06T06:05:22.961Z,100287.30
2022-11-06T06:15:26.223Z,100300.59
2022-11-06T06:25:30.085Z,100307.98
2022-11-06T06:35:34.329Z,100318.98
2022-11-06T06:45:38.013Z,100325.83
2022-11-06T06:55:42.519Z,100330.38
2022-11-06T07:05:47.041Z,100332.23
2022-11-06T07:15:50.276Z,100331.27
2022-11-06T07:25:54.717Z,100330.09
2022-11-06T07:36:04.500Z,100331.77
2022-11-06T07:46:09.768Z,100333.62
2022-11-06T07:56:13.049Z,100339.59
2022-11-06T08:06:16.568Z,100345.50
2022-11-06T08:16:19.844Z,100351.42
2022-11-06T08:26:23.173Z,100352.33
2022-11-06T08:36:27.059Z,100360.39
2022-11-06T08:46:30.421Z,100360.27
2022-11-06T08:56:33.670Z,100357.90
2022-11-06T09:06:39.811Z,100362.08
2022-11-06T09:16:43.003Z,100361.68
2022-11-06T09:26:46.625Z,100365.40
2022-11-06T09:36:49.905Z,100360.71
2022-11-06T09:46:57.054Z,100355.35
2022-11-06T09:57:06.872Z,100354.14
2022-11-06T10:07:24.726Z,100353.42
2022-11-06T10:17:43.293Z,100352.75
2022-11-06T10:27:55.419Z,100350.40
2022-11-06T10:38:24.689Z,100341.06
2022-11-06T10:48:41.362Z,100341.56
2022-11-06T10:58:45.247Z,100337.11
2022-11-06T11:08:50.582Z,100332.27
2022-11-06T11:18:54.418Z,100322.11
2022-11-06T11:29:01.271Z,100313.88
2022-11-06T11:39:04.677Z,100302.89
2022-11-06T11:49:27.794Z,100295.08
2022-11-06T11:59:55.524Z,100294.31
2022-11-06T12:10:01.056Z,100286.77
2022-11-06T12:20:11.811Z,100276.55
2022-11-06T12:30:18.706Z,100271.30
2022-11-06T12:40:25.629Z,100265.55
2022-11-06T12:51:12.919Z,100258.36
2022-11-06T13:01:33.468Z,100252.89
2022-11-06T13:11:59.699Z,100254.20
2022-11-06T13:22:30.278Z,100253.45
2022-11-06T13:32:36.493Z,100248.36
2022-11-06T13:42:58.662Z,100250.48
2022-11-06T13:53:38.374Z,100247.97
2022-11-06T14:03:59.674Z,100243.33
2022-11-06T14:14:21.794Z,100243.99
2022-11-06T14:24:41.744Z,100236.92
2022-11-06T14:34:45.475Z,100241.08
2022-11-06T14:44:55.423Z,100247.55
2022-11-06T14:55:05.485Z,100247.74
2022-11-06T15:05:18.113Z,100256.02
2022-11-06T15:15:21.522Z,100243.86
2022-11-06T15:25:30.306Z,100245.64
2022-11-06T15:35:36.190Z,100252.56
2022-11-06T15:45:39.464Z,100256.25
2022-11-06T15:56:03.741Z,100260.55
2022-11-06T16:06:07.278Z,100265.09
2022-11-06T16:16:34.987Z,100273.17
2022-11-06T16:26:45.450Z,100278.08
2022-11-06T16:36:59.358Z,100274.98
2022-11-06T16:47:05.838Z,100266.20
2022-11-06T16:57:11.386Z,100249.76
2022-11-06T17:07:21.924Z,100240.70
2022-11-06T17:17:26.478Z,100239.45
2022-11-06T17:27:29.753Z,100233.34
2022-11-06T17:37:33.143Z,100234.17
2022-11-06T17:47:36.526Z,100239.02
2022-11-06T17:57:40.463Z,100236.27
2022-11-06T18:07:43.750Z,100238.71
2022-11-06T18:17:47.605Z,100230.63
2022-11-06T18:27:50.898Z,100224.41
2022-11-06T18:37:54.303Z,100223.86
2022-11-06T18:47:59.411Z,100212.34
2022-11-06T18:58:03.899Z,100200.46
2022-11-06T19:08:07.191Z,100197.38
2022-11-06T19:18:11.888Z,100189.77
2022-11-06T19:28:17.008Z,100189.59
2022-11-06T19:38:21.471Z,100200.36
2022-11-06T19:48:24.779Z,100206.91
2022-11-06T19:58:28.162Z,100201.69
2022-11-06T20:08:32.211Z,100198.86
2022-11-06T20:18:36.659Z,100199.36
2022-11-06T20:28:39.950Z,100200.73
2022-11-06T20:38:45.055Z,100197.46
2022-11-06T20:48:49.940Z,100198.34
2022-11-06T20:58:57.080Z,100207.11
2022-11-06T21:09:00.817Z,100217.58
2022-11-06T21:19:05.283Z,100227.09
2022-11-06T21:29:11.495Z,100233.38
2022-11-06T21:39:20.006Z,100236.80
2022-11-06T21:49:23.299Z,100227.76
2022-11-06T21:59:28.738Z,100220.41
2022-11-06T22:09:31.968Z,100215.27
2022-11-06T22:19:35.307Z,100200.39
2022-11-06T22:29:38.525Z,100188.86
2022-11-06T22:39:41.831Z,100181.63
2022-11-06T22:49:45.087Z,100183.98
2022-11-06T22:59:48.286Z,100184.45
2022-11-06T23:09:51.760Z,100170.69
2022-11-06T23:19:56.688Z,100153.23
2022-11-06T23:30:02.780Z,100130.91
2022-11-06T23:40:08.085Z,100112.44
2022-11-06T23:50:11.610Z,100105.98
